Terminal Aerodrome Forecast
Issued by NWS

Home | Current Version | Previous Version | Text Only | Print | Product List | Glossary On
Versions: 1 2 3 4 5 6 7 8 9 10 11 12 13 14 15
000
FTUS45 KCYS 271740
TAFLAR
TAF
KLAR 271740Z 2718/2818 24021G30KT P6SM SCT080
     FM272100 27023G32KT P6SM VCSH SCT100 BKN150
     FM280300 31010KT P6SM SKC=

USA.gov is the U.S. government's official web portal to all federal, state and local government web resources and services.